KBLU/BLU METAR and TAF weather

Enter ICAO airport designator
Station Type Date Time Source
KBLU METAR 2019/02/23 01:52 UTC NOAA

KBLU 230152Z AUTO 00000KT 10SM CLR M01/M07 A3005 RMK AO2 SLP212 T10111072


Station Type Date Time Source
KBLU Decoded METAR 2019/02/23 01:52 UTC NOAA

BLUE CANYON AIRPORT, CA, United States (KBLU) 39-17N 120-42W 1609M
Feb 22, 2019 - 08:52 PM EST / 2019.02.23 0152 UTC
Wind: Calm:0
Visibility: 10 mile(s):0
Sky conditions: clear
Temperature: 30.0 F (-1.1 C)
Dew Point: 19.0 F (-7.2 C)
Relative Humidity: 63%
Pressure (altimeter): 30.05 in. Hg (1017 hPa)
ob: KBLU 230152Z AUTO 00000KT 10SM CLR M01/M07 A3005 RMK AO2 SLP212 T10111072
cycle: 2

Station Type Date Time Source
KBLU TAF UTC NOAA

Error!


Example: see airport list